Time;durP1;ratioP1;P1;durP2;ratioP2;P2;SDS_P1;SDS_P2;PMS_P1;PMS_P2;Temp;Humidity;BMP_temperature;BMP_pressure;BME280_temperature;BME280_humidity;BME280_pressure;Samples;Min_cycle;Max_cycle;Signal;HPM_P1;HPM_P2
2023/03/29 00:06:06;;;;;;;3.22;1.42;;;;;;;15.35;28.06;97359.09;5035617;28;20098;-33
2023/03/29 00:21:58;;;;;;;3.22;1.38;;;;;;;15.15;30.02;97336.69;5050903;28;20112;-33
2023/03/29 00:24:23;;;;;;;2.88;0.98;;;;;;;15.06;30.39;97336.56;5052958;28;20033;-33
2023/03/29 00:36:56;;;;;;;2.03;0.90;;;;;;;15.16;29.62;97337.44;5045823;28;20094;-35
2023/03/29 00:39:25;;;;;;;4.35;0.85;;;;;;;15.12;29.75;97337.53;5044788;28;20033;-34
2023/03/29 00:51:56;;;;;;;2.22;1.00;;;;;;;15.18;30.17;97345.97;5035456;28;20451;-33
2023/03/29 01:08:00;;;;;;;2.05;0.60;;;;;;;15.07;30.51;97352.50;5044201;28;20056;-32
2023/03/29 01:21:18;;;;;;;1.90;0.80;;;;;;;15.11;30.28;97341.47;5051750;28;20603;-33
2023/03/29 01:37:27;;;;;;;2.50;0.73;;;;;;;15.15;29.55;97335.91;5055698;28;20121;-33
2023/03/29 01:53:40;;;;;;;2.78;0.70;;;;;;;14.88;30.16;97344.47;5043062;28;20037;-33
2023/03/29 02:06:53;;;;;;;1.10;0.80;;;;;;;14.94;30.49;97337.28;5040480;28;20083;-33
2023/03/29 02:23:39;;;;;;;2.50;0.90;;;;;;;14.87;30.71;97321.09;5050773;28;20107;-33
2023/03/29 02:26:06;;;;;;;2.33;1.20;;;;;;;14.83;30.74;97325.91;5049282;28;20041;-33
2023/03/29 02:38:38;;;;;;;1.80;0.73;;;;;;;14.89;29.49;97332.34;5038678;28;20086;-33
2023/03/29 03:07:57;;;;;;;4.20;0.82;;;;;;;15.00;29.12;97341.00;5043821;28;20055;-33
2023/03/29 03:23:50;;;;;;;8.15;5.00;;;;;;;14.84;28.81;97344.56;5048385;28;20523;-33
2023/03/29 03:26:17;;;;;;;5.22;3.30;;;;;;;14.84;29.01;97341.06;5050058;28;20025;-33
2023/03/29 03:38:47;;;;;;;5.20;1.27;;;;;;;14.67;29.06;97332.94;5041376;28;20147;-32
2023/03/29 03:54:39;;;;;;;2.60;1.58;;;;;;;14.55;28.97;97327.41;5049219;28;20043;-32
2023/03/29 04:24:48;;;;;;;4.00;1.00;;;;;;;14.50;29.00;97331.44;5047148;28;20086;-32
2023/03/29 04:40:42;;;;;;;20.50;15.68;;;;;;;14.55;28.26;97317.28;5041836;28;20059;-32
2023/03/29 04:53:44;;;;;;;5.80;2.20;;;;;;;14.52;29.00;97311.91;5046149;28;20039;-33
2023/03/29 05:09:36;;;;;;;4.00;1.33;;;;;;;14.51;29.21;97313.09;5035991;28;20562;-33
2023/03/29 05:25:29;;;;;;;3.25;1.30;;;;;;;14.33;29.77;97311.59;5041372;28;20071;-33
2023/03/29 05:41:22;;;;;;;2.15;1.08;;;;;;;14.46;30.02;97308.19;5050347;28;20672;-33
2023/03/29 05:54:27;;;;;;;2.42;0.90;;;;;;;14.40;30.95;97313.38;5040098;28;20024;-32
2023/03/29 06:10:19;;;;;;;4.80;1.20;;;;;;;14.48;32.33;97333.81;5036539;28;20124;-33
2023/03/29 06:12:45;;;;;;;2.30;1.13;;;;;;;14.57;32.48;97327.75;5048045;28;20131;-33
2023/03/29 06:15:12;;;;;;;2.95;1.30;;;;;;;14.48;33.22;97328.38;5044117;28;20504;-32
2023/03/29 06:24:48;;;;;;;2.50;1.42;;;;;;;14.45;35.37;97334.69;5050919;28;20040;-33
2023/03/29 06:40:42;;;;;;;3.75;1.95;;;;;;;14.63;38.62;97365.00;5039341;28;20071;-33
2023/03/29 06:57:03;;;;;;;9.55;4.32;;;;;;;14.87;40.32;97400.28;5040087;28;20020;-32
2023/03/29 07:10:15;;;;;;;5.32;2.00;;;;;;;14.72;42.03;97430.69;5048635;28;20507;-33
2023/03/29 07:26:07;;;;;;;5.60;2.55;;;;;;;14.87;42.86;97427.59;5049343;28;20140;-33
2023/03/29 07:42:00;;;;;;;5.43;1.83;;;;;;;14.82;44.26;97433.59;5043251;28;20028;-33
2023/03/29 08:11:20;;;;;;;1.95;1.35;;;;;;;15.28;43.52;97460.44;5037060;28;20049;-33
2023/03/29 08:27:12;;;;;;;3.25;1.55;;;;;;;15.27;42.99;97466.34;5052090;28;20107;-33
2023/03/29 08:43:14;;;;;;;5.28;1.85;;;;;;;15.64;42.18;97459.47;5046314;28;20036;-33
2023/03/29 08:56:31;;;;;;;3.17;1.13;;;;;;;15.31;42.25;97451.38;5051368;28;20067;-33
2023/03/29 09:13:08;;;;;;;2.40;1.10;;;;;;;15.75;42.05;97460.69;5041422;28;20060;-33
2023/03/29 09:42:48;;;;;;;3.58;0.98;;;;;;;15.67;42.84;97448.44;5041027;28;20135;-33
2023/03/29 09:45:13;;;;;;;2.30;0.95;;;;;;;15.99;41.84;97452.94;5049868;28;20088;-33
2023/03/29 09:57:45;;;;;;;2.55;0.90;;;;;;;15.98;41.74;97448.69;5051165;28;20078;-34
2023/03/29 10:13:44;;;;;;;2.33;0.80;;;;;;;15.98;41.64;97450.66;5038233;28;20453;-33
2023/03/29 10:29:17;;;;;;;3.15;1.40;;;;;;;15.98;41.63;97445.94;5050857;28;20483;-33
2023/03/29 10:42:44;;;;;;;6.15;1.15;;;;;;;16.42;41.55;97435.22;5050132;28;20091;-33
2023/03/29 10:59:02;;;;;;;2.65;1.33;;;;;;;16.08;42.56;97427.66;5048576;28;20036;-33
2023/03/29 11:29:03;;;;;;;6.60;1.20;;;;;;;16.30;42.48;97394.94;5044836;28;20102;-33
2023/03/29 11:44:57;;;;;;;3.28;1.30;;;;;;;16.47;42.40;97405.28;5044055;28;20125;-33
2023/03/29 12:14:22;;;;;;;2.17;0.82;;;;;;;16.40;43.05;97372.69;5033989;28;20053;-34
2023/03/29 12:30:19;;;;;;;2.35;1.10;;;;;;;16.72;42.73;97366.13;5050827;28;20037;-34
2023/03/29 12:59:47;;;;;;;15.70;7.10;;;;;;;16.36;43.89;97343.88;5050660;28;20032;-33
2023/03/29 13:15:42;;;;;;;5.68;2.03;;;;;;;16.49;42.26;97334.41;5033003;28;20052;-34
2023/03/29 13:44:47;;;;;;;8.63;2.70;;;;;;;16.45;42.37;97319.31;5040518;28;20079;-33
2023/03/29 14:00:58;;;;;;;5.05;1.23;;;;;;;16.68;43.14;97305.25;5049759;28;20040;-33
2023/03/29 14:16:53;;;;;;;7.15;1.15;;;;;;;16.63;42.90;97319.50;5039927;28;20072;-33
2023/03/29 14:30:17;;;;;;;2.50;1.10;;;;;;;16.59;43.89;97313.34;5051016;28;20027;-33
2023/03/29 14:46:12;;;;;;;4.35;1.38;;;;;;;16.51;44.91;97298.38;5044394;28;20086;-32
2023/03/29 15:02:30;;;;;;;4.68;1.20;;;;;;;16.33;44.71;97293.50;5039867;28;20087;-33
2023/03/29 15:33:15;;;;;;;7.63;2.78;;;;;;;16.61;45.82;97285.53;5040677;28;20045;-32
2023/03/29 15:46:13;;;;;;;5.53;1.65;;;;;;;16.72;45.75;97281.22;5038619;28;20554;-33
2023/03/29 16:02:06;;;;;;;6.85;1.67;;;;;;;16.44;46.89;97293.16;5039616;28;20515;-32
2023/03/29 16:17:58;;;;;;;4.63;2.15;;;;;;;16.73;45.99;97282.75;5045127;28;20060;-33
2023/03/29 16:33:52;;;;;;;5.78;1.40;;;;;;;16.54;45.36;97294.75;5038793;28;20075;-33
2023/03/29 16:46:56;;;;;;;6.50;1.70;;;;;;;16.47;45.35;97301.25;5050395;28;20041;-33
2023/03/29 17:02:49;;;;;;;13.90;6.28;;;;;;;16.31;45.62;97297.91;5051977;28;20032;-33
2023/03/29 17:18:41;;;;;;;51.65;23.85;;;;;;;16.36;45.86;97311.78;5039249;28;20103;-33
2023/03/29 17:34:34;;;;;;;59.28;27.10;;;;;;;16.21;46.65;97299.03;5040790;28;20515;-33
2023/03/29 17:47:36;;;;;;;16.35;7.03;;;;;;;16.14;46.75;97325.44;5044981;28;20676;-35
2023/03/29 18:03:29;;;;;;;40.88;16.90;;;;;;;16.24;46.66;97347.41;5049420;28;20044;-33
2023/03/29 18:19:21;;;;;;;17.10;7.22;;;;;;;16.19;46.80;97358.94;5033729;28;20124;-33
2023/03/29 18:33:19;;;;;;;15.03;8.13;;;;;;;16.05;47.17;97373.84;5050447;28;20095;-33
2023/03/29 18:50:02;;;;;;;18.07;7.27;;;;;;;16.01;47.16;97395.06;5050323;28;20071;-33
2023/03/29 19:03:25;;;;;;;20.60;7.78;;;;;;;15.92;47.47;97403.94;5048438;28;20036;-33
2023/03/29 19:19:20;;;;;;;16.35;10.25;;;;;;;15.83;47.65;97406.53;5032085;28;20052;-33
2023/03/29 19:35:13;;;;;;;11.38;5.80;;;;;;;15.88;48.12;97416.19;5040398;28;20040;-33
2023/03/29 19:37:38;;;;;;;14.70;6.22;;;;;;;15.82;48.36;97416.72;5049626;28;20028;-33
2023/03/29 19:50:11;;;;;;;9.73;5.20;;;;;;;15.70;49.55;97424.94;5047305;28;20028;-33
2023/03/29 20:06:03;;;;;;;10.63;5.60;;;;;;;15.53;51.16;97443.34;5053499;28;20112;-33
2023/03/29 20:19:22;;;;;;;9.38;3.67;;;;;;;15.45;51.83;97442.75;5053619;28;20028;-33
2023/03/29 20:21:49;;;;;;;10.25;4.50;;;;;;;15.54;51.71;97444.13;5048021;28;20544;-33
2023/03/29 20:34:30;;;;;;;8.98;2.38;;;;;;;15.43;52.38;97439.72;5052319;28;20098;-33
2023/03/29 20:50:25;;;;;;;10.68;4.13;;;;;;;15.36;53.01;97450.06;5050671;28;20035;-34
2023/03/29 21:06:18;;;;;;;7.80;2.72;;;;;;;15.60;53.15;97453.34;5052334;28;20045;-33
2023/03/29 21:36:58;;;;;;;16.10;6.97;;;;;;;15.40;53.03;97440.59;5050639;28;20040;-33
2023/03/29 21:50:22;;;;;;;7.45;3.58;;;;;;;15.46;52.04;97430.63;5050156;28;20036;-33
2023/03/29 22:06:15;;;;;;;8.52;3.08;;;;;;;15.53;51.94;97423.44;5051053;28;20035;-34
2023/03/29 22:22:11;;;;;;;6.40;2.40;;;;;;;15.43;52.35;97417.09;5042928;28;20114;-33
2023/03/29 22:38:04;;;;;;;10.20;2.90;;;;;;;15.43;51.87;97417.84;5042198;28;20091;-32
2023/03/29 22:51:06;;;;;;;5.28;1.95;;;;;;;15.55;51.30;97429.28;5049802;28;20067;-33
2023/03/29 23:07:00;;;;;;;6.35;1.88;;;;;;;15.38;52.09;97421.09;5049852;28;20028;-33
2023/03/29 23:22:53;;;;;;;5.45;1.60;;;;;;;15.49;51.70;97398.94;5034342;28;20076;-34
2023/03/29 23:38:45;;;;;;;4.28;1.50;;;;;;;15.61;51.02;97391.97;5043062;28;20040;-33
2023/03/29 23:51:50;;;;;;;9.52;2.50;;;;;;;15.23;52.48;97395.38;5048412;28;20044;-33
